Time;durP1;ratioP1;P1;durP2;ratioP2;P2;SDS_P1;SDS_P2;PMS_P1;PMS_P2;Temp;Humidity;BMP_temperature;BMP_pressure;BME280_temperature;BME280_humidity;BME280_pressure;Samples;Min_cycle;Max_cycle;Signal;HPM_P1;HPM_P2
2021/09/09 00:01:11;;;;;;;11.20;6.30;;;435.50;2355.20;;;;;;5052404;28;20068;-78
2021/09/09 00:03:36;;;;;;;17.77;8.20;;;435.60;2355.20;;;;;;5047943;28;20045;-78
2021/09/09 00:06:02;;;;;;;12.48;6.57;;;435.70;2355.20;;;;;;5014570;28;20026;-78
2021/09/09 00:08:28;;;;;;;15.27;8.05;;;435.70;2355.20;;;;;;5045859;28;20021;-78
2021/09/09 00:10:54;;;;;;;10.90;5.75;;;435.70;2355.20;;;;;;5014511;28;20025;-78
2021/09/09 00:13:20;;;;;;;11.70;6.20;;;435.70;2355.20;;;;;;5045491;28;20047;-78
2021/09/09 00:15:46;;;;;;;7.97;5.75;;;435.70;2355.20;;;;;;5020930;28;20044;-78
2021/09/09 00:18:12;;;;;;;12.57;6.93;;;435.70;2355.20;;;;;;5052018;28;20040;-78
2021/09/09 00:20:38;;;;;;;11.82;6.82;;;435.70;2355.20;;;;;;5047007;28;20044;-78
2021/09/09 00:23:03;;;;;;;14.55;8.02;;;435.60;2355.20;;;;;;5024777;28;20496;-78
2021/09/09 00:25:29;;;;;;;17.73;7.38;;;435.60;2355.20;;;;;;5033779;28;20036;-78
2021/09/09 00:27:55;;;;;;;15.65;7.68;;;435.50;2355.20;;;;;;5033610;28;20044;-78
2021/09/09 00:30:21;;;;;;;15.65;6.90;;;435.50;2355.20;;;;;;5051994;28;20047;-78
2021/09/09 00:32:47;;;;;;;15.38;7.07;;;435.50;2355.20;;;;;;5019201;28;20641;-78
2021/09/09 00:35:13;;;;;;;13.15;7.18;;;435.50;2355.20;;;;;;5033183;28;20025;-76
2021/09/09 00:37:39;;;;;;;14.48;7.85;;;435.50;2355.20;;;;;;5032838;28;20083;-76
2021/09/09 00:40:06;;;;;;;15.57;6.97;;;435.50;2355.20;;;;;;5020567;28;20637;-76
2021/09/09 00:42:31;;;;;;;12.02;6.18;;;435.50;2355.20;;;;;;5031932;28;20048;-75
2021/09/09 00:44:57;;;;;;;15.88;6.30;;;435.50;2355.20;;;;;;5046472;28;20026;-76
2021/09/09 00:47:23;;;;;;;10.18;6.57;;;435.50;2355.20;;;;;;5024227;28;20033;-76
2021/09/09 00:49:48;;;;;;;11.98;6.57;;;435.50;2355.20;;;;;;5033230;28;20029;-77
2021/09/09 00:52:15;;;;;;;12.60;6.72;;;435.50;2355.20;;;;;;5051174;28;20039;-76
2021/09/09 00:54:43;;;;;;;13.55;6.10;;;435.70;2355.20;;;;;;5051333;28;20032;-76
2021/09/09 00:57:09;;;;;;;15.40;7.28;;;435.70;2355.20;;;;;;5030008;28;20771;-77
2021/09/09 00:59:36;;;;;;;14.52;6.07;;;435.80;2355.20;;;;;;5030106;28;20025;-76
2021/09/09 01:02:03;;;;;;;8.77;5.78;;;435.90;2355.20;;;;;;5045148;28;20032;-78
2021/09/09 01:04:30;;;;;;;11.25;5.30;;;435.90;2355.20;;;;;;5049872;28;20060;-78
2021/09/09 01:06:56;;;;;;;12.60;5.80;;;436.00;2355.20;;;;;;5037378;28;20483;-78
2021/09/09 01:09:23;;;;;;;9.98;4.90;;;436.10;2355.20;;;;;;5029914;28;20079;-78
2021/09/09 01:11:51;;;;;;;10.70;6.70;;;436.10;2355.20;;;;;;5032176;28;20037;-77
2021/09/09 01:14:18;;;;;;;11.07;5.22;;;460.80;2380.80;;;;;;5032729;28;20025;-78
2021/09/09 01:16:47;;;;;;;7.05;4.45;;;460.80;2380.80;;;;;;5033271;28;20017;-77
2021/09/09 01:19:14;;;;;;;10.35;4.88;;;460.80;2380.80;;;;;;5030786;28;20107;-78
2021/09/09 01:21:40;;;;;;;8.25;4.40;;;460.90;2380.80;;;;;;5048355;28;20029;-76
2021/09/09 01:24:13;;;;;;;6.95;4.53;;;460.80;2380.80;;;;;;5042457;28;20100;-77
2021/09/09 01:26:47;;;;;;;10.73;5.68;;;460.90;2380.80;;;;;;5017285;28;20124;-76
2021/09/09 01:29:12;;;;;;;11.85;4.38;;;460.90;2380.80;;;;;;5036701;28;20028;-75
2021/09/09 01:31:38;;;;;;;8.10;4.78;;;461.00;2380.80;;;;;;5036983;28;20036;-75
2021/09/09 01:34:04;;;;;;;10.52;4.57;;;461.00;2380.80;;;;;;5054468;28;20025;-75
2021/09/09 01:36:30;;;;;;;8.00;4.80;;;461.10;2380.80;;;;;;5033798;28;20022;-75
2021/09/09 01:38:55;;;;;;;7.30;3.92;;;461.20;2380.80;;;;;;5045908;28;20064;-74
2021/09/09 01:41:21;;;;;;;8.07;4.43;;;461.30;2380.80;;;;;;5051318;28;20387;-76
2021/09/09 01:43:47;;;;;;;9.00;4.60;;;461.30;2380.80;;;;;;5043475;28;20029;-75
2021/09/09 01:46:12;;;;;;;8.57;3.92;;;461.30;2380.80;;;;;;5055084;28;20101;-76
2021/09/09 01:48:38;;;;;;;6.20;3.50;;;461.30;2380.80;;;;;;5053957;28;20497;-75
2021/09/09 01:51:04;;;;;;;6.30;4.00;;;461.30;2380.80;;;;;;5033644;28;20022;-75
2021/09/09 01:53:30;;;;;;;10.00;3.63;;;461.30;2380.80;;;;;;5035995;28;20033;-75
2021/09/09 01:55:55;;;;;;;6.03;3.67;;;461.20;2380.80;;;;;;5028330;28;20021;-75
2021/09/09 01:58:21;;;;;;;7.82;4.20;;;461.20;2380.80;;;;;;5054187;28;20438;-75
2021/09/09 02:00:47;;;;;;;7.97;4.47;;;461.10;2380.80;;;;;;5054150;28;20036;-76
2021/09/09 02:03:13;;;;;;;7.50;4.72;;;461.10;2380.80;;;;;;5036988;28;20056;-76
2021/09/09 02:05:39;;;;;;;9.23;3.75;;;461.10;2380.80;;;;;;5034372;28;20079;-76
2021/09/09 02:08:05;;;;;;;6.38;4.00;;;461.10;2380.80;;;;;;5036390;28;20036;-75
2021/09/09 02:10:31;;;;;;;7.35;3.72;;;461.00;2380.80;;;;;;5053728;28;20040;-75
2021/09/09 02:12:56;;;;;;;7.45;4.35;;;461.00;2380.80;;;;;;5053415;28;20458;-76
2021/09/09 02:15:22;;;;;;;8.02;4.75;;;460.90;2380.80;;;;;;5039079;28;20025;-77
2021/09/09 02:17:48;;;;;;;8.43;4.55;;;460.90;2380.80;;;;;;5030231;28;20036;-77
2021/09/09 02:20:14;;;;;;;7.78;4.32;;;460.90;2380.80;;;;;;5051791;28;20152;-78
2021/09/09 02:22:39;;;;;;;7.03;4.63;;;460.80;2380.80;;;;;;5032830;28;20058;-77
2021/09/09 02:25:06;;;;;;;11.50;4.00;;;436.10;2355.20;;;;;;5031705;28;20563;-77
2021/09/09 02:27:31;;;;;;;11.43;5.10;;;436.00;2355.20;;;;;;5023633;28;20025;-77
2021/09/09 02:29:57;;;;;;;9.85;4.50;;;436.00;2355.20;;;;;;5016631;28;20021;-78
2021/09/09 02:32:23;;;;;;;7.57;4.20;;;435.90;2355.20;;;;;;5026552;28;20479;-78
2021/09/09 02:34:48;;;;;;;10.48;4.03;;;435.90;2355.20;;;;;;5035997;28;20082;-79
2021/09/09 02:37:14;;;;;;;6.47;3.92;;;435.80;2355.20;;;;;;5026415;28;20030;-76
2021/09/09 02:39:44;;;;;;;11.77;4.43;;;435.70;2355.20;;;;;;5027713;28;20025;-76
2021/09/09 02:42:10;;;;;;;5.72;4.70;;;435.50;2355.20;;;;;;5041728;28;20029;-76
2021/09/09 02:44:36;;;;;;;9.23;5.20;;;435.50;2355.20;;;;;;5035989;28;20025;-77
2021/09/09 02:47:02;;;;;;;10.40;4.45;;;435.40;2355.20;;;;;;5045783;28;20025;-76
2021/09/09 02:49:28;;;;;;;8.13;4.85;;;435.20;2355.20;;;;;;5031838;28;20056;-76
2021/09/09 02:51:53;;;;;;;5.70;4.50;;;435.20;2355.20;;;;;;5032596;28;20068;-77
2021/09/09 02:54:19;;;;;;;9.60;5.03;;;410.50;2355.20;;;;;;5043499;28;20021;-76
2021/09/09 02:56:45;;;;;;;6.38;4.13;;;410.50;2355.20;;;;;;5036027;28;20045;-76
2021/09/09 02:59:11;;;;;;;7.68;4.70;;;410.30;2355.20;;;;;;5036717;28;20028;-77
2021/09/09 03:01:38;;;;;;;10.43;5.20;;;410.30;2355.20;;;;;;5038923;28;20029;-78
2021/09/09 03:04:04;;;;;;;7.13;5.05;;;410.30;2355.20;;;;;;5036599;28;20025;-77
2021/09/09 03:06:30;;;;;;;10.88;5.90;;;410.20;2355.20;;;;;;5047512;28;20079;-79
2021/09/09 03:08:56;;;;;;;12.15;5.75;;;410.10;2355.20;;;;;;5023876;28;20467;-79
2021/09/09 03:11:21;;;;;;;11.05;4.95;;;409.90;2355.20;;;;;;5045731;28;20392;-79
2021/09/09 03:13:47;;;;;;;9.40;5.75;;;409.90;2355.20;;;;;;5026234;28;20078;-80
2021/09/09 03:16:13;;;;;;;9.25;6.53;;;409.70;2355.20;;;;;;5027118;28;20040;-78
2021/09/09 03:18:39;;;;;;;8.20;5.15;;;384.90;2329.60;;;;;;5024812;28;20510;-79
2021/09/09 03:21:04;;;;;;;6.82;5.15;;;384.90;2329.60;;;;;;5036649;28;20032;-79
2021/09/09 03:23:30;;;;;;;11.25;7.05;;;409.60;2355.20;;;;;;5050992;28;20404;-82
2021/09/09 03:25:56;;;;;;;7.72;5.10;;;409.70;2355.20;;;;;;5047119;28;20476;-82
2021/09/09 03:28:22;;;;;;;7.78;5.30;;;409.70;2355.20;;;;;;5041068;28;20116;-82
2021/09/09 03:30:47;;;;;;;9.10;5.97;;;409.70;2355.20;;;;;;5031727;28;20087;-81
2021/09/09 03:33:13;;;;;;;10.80;5.68;;;409.70;2355.20;;;;;;5027364;28;20570;-81
2021/09/09 03:35:39;;;;;;;7.50;5.53;;;409.80;2355.20;;;;;;5025193;28;20029;-80
2021/09/09 03:38:05;;;;;;;9.00;5.32;;;409.80;2355.20;;;;;;5044810;28;20018;-82
2021/09/09 03:40:30;;;;;;;9.85;5.25;;;409.90;2355.20;;;;;;5023259;28;20040;-82
2021/09/09 03:42:57;;;;;;;15.75;7.03;;;409.90;2355.20;;;;;;5025024;28;20038;-82
2021/09/09 03:45:23;;;;;;;10.85;5.30;;;410.10;2355.20;;;;;;5040977;28;20029;-81
2021/09/09 03:47:48;;;;;;;7.72;5.07;;;410.00;2355.20;;;;;;5024137;28;20404;-82
2021/09/09 03:50:14;;;;;;;8.45;5.40;;;410.00;2355.20;;;;;;5027240;28;20033;-81
2021/09/09 03:52:40;;;;;;;8.77;5.90;;;410.00;2355.20;;;;;;5024598;28;20120;-82
2021/09/09 03:55:07;;;;;;;13.40;11.65;;;410.00;2355.20;;;;;;5024629;28;20520;-82
2021/09/09 03:57:33;;;;;;;15.52;13.80;;;410.00;2355.20;;;;;;5031612;28;20056;-82
2021/09/09 03:59:58;;;;;;;12.82;10.88;;;410.00;2355.20;;;;;;5041354;28;20060;-82
2021/09/09 04:02:24;;;;;;;9.35;6.78;;;410.00;2355.20;;;;;;5039312;28;20064;-81
2021/09/09 04:04:50;;;;;;;13.52;7.82;;;410.10;2355.20;;;;;;5031411;28;20361;-79
2021/09/09 04:07:15;;;;;;;10.73;6.82;;;410.10;2355.20;;;;;;5037311;28;20025;-78
2021/09/09 04:09:41;;;;;;;10.90;5.45;;;410.20;2355.20;;;;;;5042774;28;20471;-78
2021/09/09 04:12:07;;;;;;;14.25;6.90;;;410.20;2355.20;;;;;;5025439;28;20033;-78
2021/09/09 04:14:33;;;;;;;10.23;4.65;;;410.20;2355.20;;;;;;5022224;28;20021;-78
2021/09/09 04:16:59;;;;;;;8.68;5.20;;;410.20;2355.20;;;;;;5024565;28;20126;-78
2021/09/09 04:19:26;;;;;;;7.15;4.70;;;410.30;2355.20;;;;;;5030154;28;20025;-78
2021/09/09 04:21:52;;;;;;;9.88;6.60;;;410.30;2355.20;;;;;;5023023;28;20039;-78
2021/09/09 04:24:22;;;;;;;10.10;5.47;;;410.40;2355.20;;;;;;5050686;28;20287;-79
2021/09/09 04:26:48;;;;;;;13.38;5.07;;;410.50;2355.20;;;;;;5043106;28;20036;-79
2021/09/09 04:29:17;;;;;;;9.38;5.28;;;410.50;2355.20;;;;;;5042751;28;20029;-78
2021/09/09 04:31:43;;;;;;;12.10;5.35;;;435.20;2355.20;;;;;;5022327;28;20439;-78
2021/09/09 04:34:09;;;;;;;12.02;5.82;;;435.20;2355.20;;;;;;5021967;28;20037;-78
2021/09/09 04:36:34;;;;;;;12.57;5.05;;;410.50;2355.20;;;;;;5022821;28;20075;-78
2021/09/09 04:39:00;;;;;;;10.40;5.75;;;410.40;2355.20;;;;;;5037710;28;20025;-78
2021/09/09 04:41:26;;;;;;;8.45;4.63;;;410.40;2355.20;;;;;;5025088;28;20475;-78
2021/09/09 04:43:52;;;;;;;9.13;4.45;;;410.40;2355.20;;;;;;5026488;28;20368;-78
2021/09/09 04:46:18;;;;;;;11.27;4.80;;;410.40;2355.20;;;;;;5046730;28;20468;-77
2021/09/09 04:48:43;;;;;;;9.55;4.57;;;410.50;2355.20;;;;;;5026782;28;20044;-78
2021/09/09 04:51:09;;;;;;;7.60;5.68;;;410.50;2355.20;;;;;;5024489;28;20028;-77
2021/09/09 04:53:35;;;;;;;10.48;6.25;;;435.20;2355.20;;;;;;5019656;28;20037;-78
2021/09/09 04:56:01;;;;;;;11.48;5.35;;;435.20;2355.20;;;;;;5051230;28;20020;-77
2021/09/09 04:58:27;;;;;;;10.48;7.43;;;435.20;2355.20;;;;;;5033720;28;20484;-78
2021/09/09 05:00:54;;;;;;;10.13;5.90;;;435.20;2355.20;;;;;;5026390;28;20033;-77
2021/09/09 05:03:19;;;;;;;12.48;5.47;;;435.20;2355.20;;;;;;5030172;28;20120;-76
2021/09/09 05:05:45;;;;;;;11.00;6.45;;;435.30;2355.20;;;;;;5051103;28;20207;-76
2021/09/09 05:08:11;;;;;;;11.95;6.13;;;435.40;2355.20;;;;;;5033367;28;20395;-76
2021/09/09 05:10:37;;;;;;;12.48;6.78;;;435.30;2355.20;;;;;;5050104;28;20025;-76
2021/09/09 05:13:03;;;;;;;10.52;6.13;;;435.40;2355.20;;;;;;5025234;28;20032;-76
2021/09/09 05:15:29;;;;;;;15.18;5.75;;;435.50;2355.20;;;;;;5044876;28;20112;-75
2021/09/09 05:17:54;;;;;;;13.27;6.97;;;435.60;2355.20;;;;;;5037492;28;20167;-75
2021/09/09 05:20:20;;;;;;;12.57;6.40;;;435.70;2355.20;;;;;;5033292;28;20029;-75
2021/09/09 05:22:49;;;;;;;12.35;5.95;;;435.80;2355.20;;;;;;5032266;28;20052;-75
2021/09/09 05:25:15;;;;;;;11.05;7.72;;;435.90;2355.20;;;;;;5051131;28;20053;-75
2021/09/09 05:27:41;;;;;;;14.68;6.82;;;436.00;2355.20;;;;;;5050323;28;20119;-75
2021/09/09 05:30:07;;;;;;;13.38;6.10;;;460.80;2380.80;;;;;;5042042;28;20029;-75
2021/09/09 05:32:33;;;;;;;12.27;7.30;;;460.80;2380.80;;;;;;5021301;28;20021;-76
2021/09/09 05:35:00;;;;;;;16.02;7.93;;;460.90;2380.80;;;;;;5034434;28;20028;-77
2021/09/09 05:37:26;;;;;;;13.68;8.95;;;461.00;2380.80;;;;;;5055000;28;20444;-79
2021/09/09 05:39:52;;;;;;;11.52;6.50;;;461.10;2380.80;;;;;;5030966;28;20052;-75
2021/09/09 05:42:18;;;;;;;17.45;9.52;;;461.40;2380.80;;;;;;5055086;28;20411;-78
2021/09/09 05:44:44;;;;;;;12.38;6.78;;;461.50;2380.80;;;;;;5028052;28;20056;-79
2021/09/09 05:47:10;;;;;;;11.25;8.13;;;486.40;2380.80;;;;;;5019617;28;20033;-78
2021/09/09 05:49:36;;;;;;;17.88;10.55;;;486.50;2380.80;;;;;;5015709;28;20050;-76
2021/09/09 05:52:03;;;;;;;16.90;12.00;;;486.70;2380.80;;;;;;5044786;28;20061;-76
2021/09/09 05:54:30;;;;;;;13.23;8.65;;;486.90;2380.80;;;;;;5047718;28;20099;-75
2021/09/09 05:56:56;;;;;;;18.27;10.13;;;487.00;2380.80;;;;;;5020972;28;20472;-75
2021/09/09 05:59:22;;;;;;;20.48;10.80;;;487.20;2380.80;;;;;;5044539;28;20078;-76
2021/09/09 06:01:49;;;;;;;11.23;7.25;;;512.00;2380.80;;;;;;5043662;28;20021;-76
2021/09/09 06:04:17;;;;;;;29.05;6.57;;;512.20;2380.80;;;;;;5041734;28;20033;-76
2021/09/09 06:06:43;;;;;;;13.65;5.70;;;512.30;2380.80;;;;;;5021840;28;20033;-76
2021/09/09 06:09:09;;;;;;;11.45;6.38;;;512.50;2380.80;;;;;;5027192;28;20095;-75
2021/09/09 06:11:35;;;;;;;17.40;4.75;;;512.70;2380.80;;;;;;5045391;28;20063;-76
2021/09/09 06:14:01;;;;;;;9.30;4.95;;;512.90;2380.80;;;;;;5024471;28;20025;-76
2021/09/09 06:16:27;;;;;;;18.42;6.45;;;537.70;2406.40;;;;;;5023355;28;20036;-76
2021/09/09 06:18:53;;;;;;;12.85;6.03;;;537.90;2406.40;;;;;;5028710;28;20030;-76
2021/09/09 06:21:18;;;;;;;12.50;4.72;;;538.10;2406.40;;;;;;5047165;28;20402;-75
2021/09/09 06:23:44;;;;;;;9.77;4.55;;;538.40;2406.40;;;;;;5045581;28;20049;-75
2021/09/09 06:26:10;;;;;;;14.43;3.78;;;563.20;2432.00;;;;;;5042904;28;20029;-75
2021/09/09 06:28:36;;;;;;;16.25;7.78;;;563.50;2432.00;;;;;;5046694;28;20107;-76
2021/09/09 06:31:01;;;;;;;9.73;4.28;;;563.70;2432.00;;;;;;5026513;28;20653;-76
2021/09/09 06:33:27;;;;;;;11.23;4.07;;;563.80;2432.00;;;;;;5039656;28;20040;-76
2021/09/09 06:35:53;;;;;;;7.80;4.15;;;564.00;2432.00;;;;;;5026901;28;20481;-77
2021/09/09 06:38:19;;;;;;;10.65;5.78;;;588.80;2406.40;;;;;;5029995;28;20037;-74
2021/09/09 06:40:44;;;;;;;8.45;4.10;;;588.90;2380.80;;;;;;5027940;28;20064;-75
2021/09/09 06:43:10;;;;;;;5.53;3.42;;;589.20;2355.20;;;;;;5028967;28;20032;-75
2021/09/09 06:45:36;;;;;;;8.35;3.72;;;589.40;2355.20;;;;;;5046343;28;20451;-75
2021/09/09 06:48:03;;;;;;;10.98;4.57;;;589.60;2329.60;;;;;;5043880;28;20113;-75
2021/09/09 06:50:28;;;;;;;8.65;3.55;;;614.40;2278.40;;;;;;5044474;28;20075;-74
2021/09/09 06:52:54;;;;;;;6.38;4.28;;;614.50;2278.40;;;;;;5046156;28;20057;-78
2021/09/09 06:55:21;;;;;;;7.03;3.88;;;614.60;2252.80;;;;;;5043830;28;20032;-74
2021/09/09 06:57:46;;;;;;;6.45;3.20;;;614.50;2227.20;;;;;;5026431;28;20022;-74
2021/09/09 07:00:12;;;;;;;12.25;3.97;;;614.60;2201.60;;;;;;5052827;28;20364;-73
2021/09/09 07:02:39;;;;;;;8.27;4.10;;;614.70;2201.60;;;;;;5035306;28;20272;-76
2021/09/09 07:05:05;;;;;;;7.53;3.63;;;614.70;2201.60;;;;;;5036500;28;20034;-75
2021/09/09 07:07:31;;;;;;;12.82;4.20;;;614.80;2176.00;;;;;;5027316;28;20036;-76
2021/09/09 07:09:57;;;;;;;9.73;3.50;;;614.90;2176.00;;;;;;5053107;28;20029;-75
2021/09/09 07:12:22;;;;;;;9.10;3.60;;;614.70;2150.40;;;;;;5040790;28;20033;-75
2021/09/09 07:14:48;;;;;;;9.68;3.92;;;614.90;2150.40;;;;;;5030138;28;20013;-77
2021/09/09 07:17:14;;;;;;;12.93;3.90;;;615.10;2150.40;;;;;;5022457;28;20023;-77
2021/09/09 07:19:40;;;;;;;11.07;4.10;;;615.10;2124.80;;;;;;5043954;28;20032;-76
2021/09/09 07:22:06;;;;;;;13.95;4.43;;;615.10;2124.80;;;;;;5028858;28;20116;-76
2021/09/09 07:24:31;;;;;;;9.85;3.75;;;615.30;2099.20;;;;;;5044456;28;20029;-77
2021/09/09 07:26:57;;;;;;;10.80;3.90;;;640.00;2073.60;;;;;;5046969;28;20032;-76
2021/09/09 07:29:23;;;;;;;7.40;3.30;;;640.10;2048.00;;;;;;5024909;28;20121;-76
2021/09/09 07:31:49;;;;;;;8.13;4.13;;;640.30;2048.00;;;;;;5022704;28;20032;-77
2021/09/09 07:34:15;;;;;;;13.82;4.35;;;640.40;1996.80;;;;;;5024150;28;20043;-77
2021/09/09 07:36:41;;;;;;;11.68;4.10;;;640.70;1996.80;;;;;;5026889;28;20036;-76
2021/09/09 07:39:07;;;;;;;9.82;4.10;;;640.80;1971.20;;;;;;5030532;28;20020;-77
2021/09/09 07:41:34;;;;;;;8.57;4.50;;;665.70;1971.20;;;;;;5047577;28;20028;-76
2021/09/09 07:44:00;;;;;;;7.95;4.32;;;665.80;1945.60;;;;;;5030692;28;20113;-76
2021/09/09 07:46:26;;;;;;;7.93;5.18;;;665.70;1920.00;;;;;;5049709;28;21536;-76
2021/09/09 07:48:53;;;;;;;11.85;3.70;;;665.80;1894.40;;;;;;5029647;28;20033;-76
2021/09/09 07:51:19;;;;;;;10.68;3.60;;;666.10;1920.00;;;;;;5034934;28;20479;-77
2021/09/09 07:53:48;;;;;;;10.55;5.63;;;666.10;1868.80;;;;;;5048159;28;20046;-78
2021/09/09 07:56:14;;;;;;;11.18;3.67;;;665.80;1843.20;;;;;;5047920;28;20408;-78
2021/09/09 07:58:40;;;;;;;12.65;3.75;;;665.90;1843.20;;;;;;5025695;28;20222;-77
2021/09/09 08:01:05;;;;;;;14.70;3.40;;;666.10;1817.60;;;;;;5023267;28;20477;-77
2021/09/09 08:03:31;;;;;;;13.77;5.63;;;666.20;1817.60;;;;;;5024988;28;20099;-77
2021/09/09 08:05:57;;;;;;;19.80;4.90;;;666.30;1792.00;;;;;;5025641;28;20035;-76
2021/09/09 08:08:23;;;;;;;10.55;4.10;;;666.30;1817.60;;;;;;5045225;28;20547;-78
2021/09/09 08:10:49;;;;;;;10.35;3.83;;;666.20;1766.40;;;;;;5018845;28;20116;-78
2021/09/09 08:13:15;;;;;;;7.82;3.75;;;666.30;1766.40;;;;;;5024979;28;20495;-78
2021/09/09 08:15:41;;;;;;;22.80;4.03;;;666.30;1766.40;;;;;;5038631;28;20128;-81
2021/09/09 08:18:07;;;;;;;22.05;5.22;;;691.20;1715.20;;;;;;5033943;28;20036;-82
2021/09/09 08:20:33;;;;;;;12.65;4.10;;;691.30;1715.20;;;;;;5023010;28;20080;-83
2021/09/09 08:22:58;;;;;;;21.55;5.07;;;691.70;1689.60;;;;;;5028283;28;20061;-83
2021/09/09 08:25:24;;;;;;;16.85;4.72;;;716.80;1715.20;;;;;;5050710;28;20406;-85
2021/09/09 08:27:50;;;;;;;14.30;3.88;;;716.80;1664.00;;;;;;5034715;28;20471;-83
2021/09/09 08:30:16;;;;;;;14.13;4.55;;;716.80;1638.40;;;;;;5023956;28;20116;-77
2021/09/09 08:32:42;;;;;;;13.15;4.03;;;717.20;1612.80;;;;;;5039548;28;20121;-77
2021/09/09 08:35:09;;;;;;;11.40;3.67;;;717.20;1587.20;;;;;;5042869;28;20025;-77
2021/09/09 08:37:35;;;;;;;8.32;4.18;;;717.30;1612.80;;;;;;5044890;28;20013;-77
2021/09/09 08:40:03;;;;;;;10.48;4.15;;;717.50;1561.60;;;;;;5023468;28;20060;-76
2021/09/09 08:42:30;;;;;;;9.68;3.63;;;717.60;1536.00;;;;;;5040434;28;20457;-77
2021/09/09 08:44:56;;;;;;;6.70;4.00;;;717.50;1510.40;;;;;;5029953;28;20108;-78
2021/09/09 08:47:24;;;;;;;8.98;3.50;;;717.50;1484.80;;;;;;5032253;28;20115;-77
2021/09/09 08:49:50;;;;;;;13.38;3.85;;;717.60;1484.80;;;;;;5023912;28;20396;-79
2021/09/09 08:52:16;;;;;;;7.82;3.30;;;717.70;1484.80;;;;;;5044436;28;20025;-84
2021/09/09 08:54:42;;;;;;;11.57;4.22;;;742.40;1510.40;;;;;;5019804;28;20086;-83
2021/09/09 08:57:08;;;;;;;13.63;4.13;;;742.60;1510.40;;;;;;5028982;28;20480;-84
2021/09/09 08:59:34;;;;;;;11.77;4.55;;;742.60;1459.20;;;;;;5033290;28;20013;-84
2021/09/09 09:02:00;;;;;;;11.00;3.70;;;742.70;1459.20;;;;;;5027586;28;20029;-84
2021/09/09 09:04:27;;;;;;;8.93;4.47;;;743.00;1459.20;;;;;;5024505;28;20033;-79
2021/09/09 09:06:52;;;;;;;11.13;5.32;;;743.10;1433.60;;;;;;5051413;28;20029;-78
2021/09/09 09:09:21;;;;;;;13.10;4.53;;;743.20;1433.60;;;;;;5043436;28;20033;-79
2021/09/09 09:11:50;;;;;;;8.90;4.63;;;742.70;1459.20;;;;;;5028398;28;20033;-79
2021/09/09 09:14:21;;;;;;;14.98;6.55;;;742.40;1484.80;;;;;;5032750;28;20029;-79
2021/09/09 09:17:13;;;;;;;20.20;10.35;;;742.40;1459.20;;;;;;5020138;28;20053;-79
2021/09/09 09:19:41;;;;;;;15.73;7.03;;;742.60;1433.60;;;;;;5038113;28;20095;-78
2021/09/09 09:22:15;;;;;;;9.77;4.65;;;742.70;1459.20;;;;;;5047725;28;20036;-78
2021/09/09 09:24:46;;;;;;;12.05;4.22;;;742.60;1459.20;;;;;;5021761;28;20071;-79
2021/09/09 09:27:21;;;;;;;8.60;4.47;;;717.60;1433.60;;;;;;5028561;28;20432;-77
2021/09/09 09:29:59;;;;;;;;;;;742.60;1459.20;;;;;;5016371;28;20480;-77
2021/09/09 09:32:25;;;;;;;8.43;5.40;;;743.30;1408.00;;;;;;5042810;28;20326;-77
2021/09/09 09:35:10;;;;;;;7.45;4.15;;;768.20;1382.40;;;;;;5044662;28;20017;-78
2021/09/09 09:37:36;;;;;;;11.00;4.27;;;768.50;1356.80;;;;;;5042170;28;20017;-77
2021/09/09 09:40:09;;;;;;;14.55;6.30;;;768.40;1356.80;;;;;;5042914;28;20488;-77
2021/09/09 09:42:36;;;;;;;10.95;6.10;;;768.80;1331.20;;;;;;5050609;28;20049;-77
2021/09/09 09:45:12;;;;;;;12.77;6.18;;;794.20;1331.20;;;;;;5029305;28;20543;-77
2021/09/09 09:47:38;;;;;;;;;;;819.30;1305.60;;;;;;5042210;28;20419;-77
2021/09/09 09:50:19;;;;;;;8.10;4.57;;;819.20;1305.60;;;;;;5056061;28;19916;-82
2021/09/09 09:52:45;;;;;;;17.33;5.70;;;819.40;1280.00;;;;;;5027147;28;20033;-82
2021/09/09 09:55:11;;;;;;;10.82;4.72;;;819.20;1305.60;;;;;;5033312;28;20067;-79
2021/09/09 09:57:54;;;;;;;6.68;3.95;;;819.20;1305.60;;;;;;5043635;28;20025;-79
2021/09/09 10:00:22;;;;;;;11.07;4.45;;;819.20;1280.00;;;;;;5027170;28;20035;-77
2021/09/09 10:02:48;;;;;;;6.55;4.00;;;819.30;1280.00;;;;;;5046036;28;20032;-78
2021/09/09 10:05:14;;;;;;;8.10;4.93;;;819.30;1305.60;;;;;;5029119;28;20056;-78
2021/09/09 10:07:40;;;;;;;9.60;4.63;;;819.20;1305.60;;;;;;5047981;28;20086;-78
2021/09/09 10:10:07;;;;;;;8.20;4.50;;;794.10;1305.60;;;;;;5046741;28;20025;-77
2021/09/09 10:12:33;;;;;;;8.55;3.85;;;794.40;1305.60;;;;;;5025314;28;20032;-78
2021/09/09 10:15:04;;;;;;;9.20;3.75;;;794.50;1280.00;;;;;;5045956;28;20387;-78
2021/09/09 10:17:33;;;;;;;6.35;3.60;;;819.40;1280.00;;;;;;5044020;28;20104;-78
2021/09/09 10:20:37;;;;;;;9.32;4.20;;;819.60;1254.40;;;;;;5051264;28;20025;-78
2021/09/09 10:23:09;;;;;;;5.90;3.95;;;844.80;1254.40;;;;;;5023659;28;20687;-78
2021/09/09 10:25:54;;;;;;;6.90;4.60;;;845.20;1254.40;;;;;;5025170;28;20037;-77
2021/09/09 10:31:07;;;;;;;5.28;3.00;;;870.40;1203.20;;;;;;5044918;28;20080;-78
2021/09/09 10:33:34;;;;;;;7.70;3.40;;;870.70;1177.60;;;;;;5028373;28;20033;-79
2021/09/09 10:36:01;;;;;;;6.10;3.17;;;870.50;1177.60;;;;;;5028070;28;20018;-78
2021/09/09 10:38:30;;;;;;;8.52;4.22;;;896.00;1152.00;;;;;;5044584;28;20372;-78
2021/09/09 10:40:57;;;;;;;9.73;3.65;;;896.00;1152.00;;;;;;5028826;28;20021;-77
2021/09/09 10:43:23;;;;;;;8.82;3.25;;;896.50;1100.80;;;;;;5029052;28;20028;-78
2021/09/09 10:45:49;;;;;;;9.80;3.42;;;896.30;1126.40;;;;;;5024550;28;20437;-77
2021/09/09 10:48:14;;;;;;;6.22;3.20;;;896.30;1100.80;;;;;;5027244;28;20032;-77
2021/09/09 10:50:56;;;;;;;5.03;2.90;;;896.20;1100.80;;;;;;5026600;28;20025;-78
2021/09/09 10:53:33;;;;;;;5.30;3.47;;;896.00;1100.80;;;;;;5024043;28;20036;-78
2021/09/09 10:56:10;;;;;;;10.10;3.88;;;896.30;1100.80;;;;;;5047995;28;20025;-79
2021/09/09 10:58:38;;;;;;;5.00;3.20;;;896.50;1049.60;;;;;;5035241;28;20064;-78
2021/09/09 11:01:07;;;;;;;13.63;3.45;;;896.70;1049.60;;;;;;5034034;28;20021;-79
2021/09/09 11:03:49;;;;;;;5.43;3.50;;;896.30;1100.80;;;;;;5022450;28;20038;-75
2021/09/09 11:06:20;;;;;;;8.65;3.22;;;896.00;1075.20;;;;;;5052976;28;20021;-77
2021/09/09 11:08:48;;;;;;;7.50;4.70;;;871.20;1075.20;;;;;;5042781;28;20051;-77
2021/09/09 11:11:25;;;;;;;10.32;3.72;;;871.30;1075.20;;;;;;5029463;28;20032;-77
2021/09/09 11:14:03;;;;;;;13.38;3.95;;;896.20;1049.60;;;;;;5036869;28;20820;-78
2021/09/09 11:16:35;;;;;;;7.03;3.80;;;896.20;1049.60;;;;;;5043804;28;20045;-75
2021/09/09 11:19:02;;;;;;;8.27;3.10;;;896.70;1024.00;;;;;;5046555;28;20371;-80
2021/09/09 11:21:31;;;;;;;5.63;3.35;;;896.90;1024.00;;;;;;5044230;28;20025;-79
2021/09/09 11:24:09;;;;;;;8.10;3.50;;;921.70;1024.00;;;;;;5025884;28;20049;-77
2021/09/09 11:26:36;;;;;;;7.95;2.90;;;896.90;998.40;;;;;;5032733;28;20026;-78
2021/09/09 11:29:04;;;;;;;7.35;3.05;;;921.70;1024.00;;;;;;5020646;28;20507;-79
2021/09/09 11:31:32;;;;;;;9.25;3.55;;;896.80;1024.00;;;;;;5011076;28;20037;-80
2021/09/09 11:33:58;;;;;;;6.88;2.78;;;921.70;1024.00;;;;;;5029529;28;20071;-79
2021/09/09 11:36:27;;;;;;;9.27;4.32;;;896.90;998.40;;;;;;5024802;28;20033;-80
2021/09/09 11:38:55;;;;;;;5.65;3.50;;;921.80;1024.00;;;;;;5022233;28;20029;-80
2021/09/09 11:41:22;;;;;;;8.43;3.90;;;922.00;1024.00;;;;;;5027285;28;20052;-80
2021/09/09 11:43:55;;;;;;;19.40;9.93;;;921.90;1024.00;;;;;;5014418;28;20029;-81
2021/09/09 11:46:24;;;;;;;11.75;8.27;;;896.90;972.80;;;;;;5013073;28;20038;-81
2021/09/09 11:48:56;;;;;;;12.35;5.53;;;922.00;972.80;;;;;;5023272;28;20040;-83
2021/09/09 11:51:50;;;;;;;10.80;5.20;;;922.00;972.80;;;;;;5019647;28;20118;-79
2021/09/09 11:54:24;;;;;;;9.00;3.70;;;922.50;972.80;;;;;;5020197;28;20498;-80
2021/09/09 11:56:53;;;;;;;6.72;4.43;;;947.20;947.20;;;;;;5022887;28;20030;-78
2021/09/09 11:59:19;;;;;;;11.07;6.32;;;947.20;947.20;;;;;;5020152;28;20033;-79
2021/09/09 12:01:56;;;;;;;11.20;7.55;;;947.30;947.20;;;;;;5030175;28;20022;-83
2021/09/09 12:04:23;;;;;;;9.85;5.25;;;947.70;947.20;;;;;;5027569;28;20029;-78
2021/09/09 12:06:50;;;;;;;16.05;9.88;;;947.20;896.00;;;;;;5021738;28;20044;-79
2021/09/09 12:09:37;;;;;;;11.50;5.32;;;947.70;896.00;;;;;;5015583;28;20044;-79
2021/09/09 12:12:11;;;;;;;12.23;5.05;;;921.70;947.20;;;;;;5025221;28;20040;-78
2021/09/09 12:14:39;;;;;;;14.05;5.53;;;871.00;972.80;;;;;;5021546;28;20026;-78
2021/09/09 12:17:13;;;;;;;13.50;7.10;;;845.50;998.40;;;;;;5018647;28;20460;-77